Time;durP1;ratioP1;P1;durP2;ratioP2;P2;SDS_P1;SDS_P2;PMS_P1;PMS_P2;Temp;Humidity;BMP_temperature;BMP_pressure;BME280_temperature;BME280_humidity;BME280_pressure;Samples;Min_cycle;Max_cycle;Signal;HPM_P1;HPM_P2
2022/04/17 00:01:56;;;;;;;13.93;10.23;;;5.60;99.90;;;;;;5131999;28;20474;-48
2022/04/17 00:04:23;;;;;;;13.87;10.40;;;5.90;99.90;;;;;;5131634;27;20545;-50
2022/04/17 00:06:50;;;;;;;15.87;12.67;;;6.10;99.90;;;;;;5132233;27;20476;-49
2022/04/17 00:09:17;;;;;;;13.40;12.10;;;6.00;99.90;;;;;;5131749;27;20787;-49
2022/04/17 00:11:46;;;;;;;11.70;9.93;;;5.90;99.90;;;;;;5132303;27;20493;-49
2022/04/17 00:14:13;;;;;;;12.57;9.80;;;5.80;99.90;;;;;;5131561;27;20478;-49
2022/04/17 00:16:40;;;;;;;11.07;9.93;;;5.70;99.90;;;;;;5131901;28;20480;-49
2022/04/17 00:19:07;;;;;;;12.60;11.23;;;5.90;99.90;;;;;;5131921;28;20476;-49
2022/04/17 00:21:34;;;;;;;12.00;9.90;;;6.10;99.90;;;;;;5131742;27;20474;-50
2022/04/17 00:24:01;;;;;;;11.37;10.20;;;6.00;99.90;;;;;;5131682;27;20442;-48
2022/04/17 00:26:28;;;;;;;9.57;8.33;;;5.60;99.90;;;;;;5131787;28;20947;-48
2022/04/17 00:28:57;;;;;;;11.13;8.60;;;4.80;99.90;;;;;;5131576;28;20545;-48
2022/04/17 00:31:24;;;;;;;11.10;8.60;;;4.30;99.90;;;;;;5131929;27;20476;-48
2022/04/17 00:33:51;;;;;;;13.23;9.60;;;4.10;99.90;;;;;;5131886;28;20487;-48
2022/04/17 00:36:18;;;;;;;11.13;8.70;;;4.10;99.90;;;;;;5132215;28;20469;-49
2022/04/17 00:38:45;;;;;;;11.70;8.87;;;4.40;99.90;;;;;;5131529;27;20464;-50
2022/04/17 00:41:12;;;;;;;11.30;9.27;;;4.90;99.90;;;;;;5131424;27;20493;-48
2022/04/17 00:43:45;;;;;;;11.10;9.43;;;5.40;99.90;;;;;;5131397;28;20519;-48
2022/04/17 00:46:14;;;;;;;9.93;8.90;;;5.70;99.90;;;;;;5131396;27;20438;-48
2022/04/17 00:48:41;;;;;;;11.17;10.17;;;6.00;99.90;;;;;;5131551;27;20483;-48
2022/04/17 00:51:09;;;;;;;19.53;11.17;;;6.10;99.90;;;;;;5131529;28;20508;-51
2022/04/17 00:53:37;;;;;;;12.43;10.50;;;6.00;99.90;;;;;;5131401;27;20480;-49
2022/04/17 00:56:06;;;;;;;10.97;8.80;;;6.10;99.90;;;;;;5135227;27;20499;-48
2022/04/17 00:58:36;;;;;;;9.60;7.93;;;6.20;99.90;;;;;;5135341;27;21040;-48
2022/04/17 01:01:04;;;;;;;11.47;9.97;;;6.30;99.90;;;;;;5135083;27;20499;-48
2022/04/17 01:03:33;;;;;;;11.10;9.63;;;6.30;99.90;;;;;;5135406;27;20472;-48
2022/04/17 01:06:01;;;;;;;13.60;10.03;;;6.40;99.90;;;;;;5135154;27;20442;-48
2022/04/17 01:08:28;;;;;;;12.00;9.53;;;6.40;99.90;;;;;;5134878;27;20463;-49
2022/04/17 01:10:55;;;;;;;11.73;9.50;;;6.50;99.90;;;;;;5134760;27;20501;-49
2022/04/17 01:13:23;;;;;;;22.77;13.77;;;6.40;99.90;;;;;;5134423;27;20978;-48
2022/04/17 01:15:50;;;;;;;31.83;21.37;;;6.50;99.90;;;;;;5134888;27;20473;-49
2022/04/17 01:18:17;;;;;;;26.90;17.50;;;6.60;99.90;;;;;;5134831;27;20442;-49
2022/04/17 01:20:45;;;;;;;16.20;13.70;;;6.60;99.90;;;;;;5134555;27;20501;-49
2022/04/17 01:28:43;;;;;;;16.00;13.27;;;6.40;99.90;;;;;;5134630;27;20470;-51
2022/04/17 01:31:10;;;;;;;16.67;12.80;;;6.30;99.90;;;;;;5134695;27;20470;-48
2022/04/17 01:33:37;;;;;;;14.50;12.20;;;6.20;99.90;;;;;;5134313;27;20468;-49
2022/04/17 01:36:04;;;;;;;12.63;11.33;;;5.70;99.90;;;;;;5134671;27;20446;-48
2022/04/17 01:38:32;;;;;;;12.80;11.00;;;5.80;99.90;;;;;;5134263;27;20477;-50
2022/04/17 01:40:59;;;;;;;11.40;10.17;;;5.90;99.90;;;;;;5134376;27;20730;-50
2022/04/17 01:43:26;;;;;;;11.60;9.87;;;6.00;99.90;;;;;;5134086;27;20566;-49
2022/04/17 01:45:53;;;;;;;13.17;10.63;;;5.80;99.90;;;;;;5134261;27;20476;-48
2022/04/17 01:48:20;;;;;;;10.73;8.83;;;5.40;99.90;;;;;;5134206;27;20931;-49
2022/04/17 01:50:47;;;;;;;11.23;8.10;;;5.10;99.90;;;;;;5134188;27;20497;-48
2022/04/17 01:53:14;;;;;;;9.17;8.27;;;4.70;99.90;;;;;;5134126;27;20441;-49
2022/04/17 01:55:42;;;;;;;9.10;8.20;;;3.80;99.90;;;;;;5133914;27;20994;-48
2022/04/17 01:58:09;;;;;;;9.00;8.10;;;3.50;99.90;;;;;;5134219;27;20547;-48
2022/04/17 02:00:36;;;;;;;9.60;7.80;;;3.30;99.90;;;;;;5133951;27;20551;-49
2022/04/17 02:03:03;;;;;;;9.90;8.40;;;3.20;99.90;;;;;;5133449;27;20504;-48
2022/04/17 02:05:30;;;;;;;10.67;8.60;;;3.70;99.90;;;;;;5132867;27;20445;-48
2022/04/17 02:07:57;;;;;;;9.03;7.93;;;4.30;99.90;;;;;;5133501;27;20958;-49
2022/04/17 02:10:24;;;;;;;8.17;7.33;;;4.70;99.90;;;;;;5133678;27;20502;-48
2022/04/17 02:12:53;;;;;;;10.30;8.70;;;5.00;99.90;;;;;;5133708;27;20466;-49
2022/04/17 02:15:20;;;;;;;9.17;7.97;;;5.20;99.90;;;;;;5134270;27;20446;-48
2022/04/17 02:17:47;;;;;;;10.27;8.10;;;5.30;99.90;;;;;;5133533;27;20478;-48
2022/04/17 02:20:14;;;;;;;10.50;8.50;;;5.40;99.90;;;;;;5133489;27;20507;-48
2022/04/17 02:22:41;;;;;;;10.70;9.60;;;5.60;99.90;;;;;;5132983;27;20582;-48
2022/04/17 02:25:09;;;;;;;10.00;8.60;;;5.30;99.90;;;;;;5133639;27;20440;-49
2022/04/17 02:27:36;;;;;;;10.47;8.60;;;5.00;99.90;;;;;;5133761;27;20532;-48
2022/04/17 02:30:05;;;;;;;9.17;7.90;;;4.50;99.90;;;;;;5133378;27;20516;-48
2022/04/17 02:32:32;;;;;;;8.60;7.80;;;4.30;99.90;;;;;;5133055;27;20471;-50
2022/04/17 02:34:59;;;;;;;8.90;8.00;;;4.20;99.90;;;;;;5133237;27;20492;-48
2022/04/17 02:37:26;;;;;;;9.90;7.47;;;4.50;99.90;;;;;;5133703;27;20440;-48
2022/04/17 02:39:53;;;;;;;10.13;8.10;;;4.70;99.90;;;;;;5132948;27;20948;-49
2022/04/17 02:42:20;;;;;;;9.47;7.00;;;5.00;99.90;;;;;;5132933;27;20480;-49
2022/04/17 02:44:47;;;;;;;8.60;7.03;;;5.20;99.90;;;;;;5133102;27;20959;-50
2022/04/17 02:49:59;;;;;;;11.83;10.67;;;5.00;99.90;;;;;;5132952;27;20452;-50
2022/04/17 02:52:26;;;;;;;11.63;9.77;;;5.10;99.90;;;;;;5132731;27;21012;-48
2022/04/17 02:54:54;;;;;;;10.97;9.77;;;5.30;99.90;;;;;;5132883;27;20468;-48
2022/04/17 02:57:21;;;;;;;16.90;12.40;;;4.90;99.90;;;;;;5132671;27;20443;-48
2022/04/17 02:59:48;;;;;;;15.40;12.10;;;4.40;99.90;;;;;;5132958;27;20491;-48
2022/04/17 03:07:45;;;;;;;15.37;10.97;;;4.50;99.90;;;;;;5132553;27;20416;-50
2022/04/17 03:10:12;;;;;;;14.73;11.27;;;4.90;99.90;;;;;;5132726;27;20461;-48
2022/04/17 03:12:39;;;;;;;18.87;12.47;;;4.90;99.90;;;;;;5132031;27;20437;-48
2022/04/17 03:15:08;;;;;;;14.73;11.80;;;4.80;99.90;;;;;;5132578;27;20444;-48
2022/04/17 03:17:36;;;;;;;15.00;10.97;;;4.70;99.90;;;;;;5132529;27;20499;-48
2022/04/17 03:20:08;;;;;;;13.47;10.97;;;4.70;99.90;;;;;;5133217;27;20870;-53
2022/04/17 03:22:35;;;;;;;12.07;9.63;;;4.50;99.90;;;;;;5132297;27;20436;-48
2022/04/17 03:25:04;;;;;;;11.57;9.93;;;4.60;99.90;;;;;;5132559;27;20476;-51
2022/04/17 03:27:31;;;;;;;14.23;9.47;;;4.70;99.90;;;;;;5132676;27;20440;-49
2022/04/17 03:29:58;;;;;;;14.30;9.40;;;4.40;99.90;;;;;;5132358;27;20489;-48
2022/04/17 03:32:25;;;;;;;11.53;9.33;;;4.40;99.90;;;;;;5132317;27;21005;-49
2022/04/17 03:34:53;;;;;;;11.40;8.90;;;4.20;99.90;;;;;;5132669;27;20469;-49
2022/04/17 03:37:20;;;;;;;11.17;9.97;;;4.10;99.90;;;;;;5132210;27;20497;-48
2022/04/17 03:39:48;;;;;;;10.67;8.93;;;4.60;99.90;;;;;;5131908;27;20468;-48
2022/04/17 03:42:15;;;;;;;11.83;9.43;;;5.00;99.90;;;;;;5131922;27;20455;-50
2022/04/17 03:44:42;;;;;;;12.40;11.00;;;5.20;99.90;;;;;;5132357;27;20476;-51
2022/04/17 03:47:09;;;;;;;13.10;10.50;;;5.40;99.90;;;;;;5132156;27;20440;-49
2022/04/17 03:49:36;;;;;;;12.63;10.30;;;5.50;99.90;;;;;;5132233;27;20490;-50
2022/04/17 03:52:05;;;;;;;12.00;10.70;;;5.60;99.90;;;;;;5131966;27;20488;-48
2022/04/17 03:54:32;;;;;;;17.40;11.73;;;5.70;99.90;;;;;;5132004;27;20469;-48
2022/04/17 03:57:00;;;;;;;24.70;15.50;;;5.70;99.90;;;;;;5132510;28;20469;-48
2022/04/17 03:59:26;;;;;;;23.33;15.17;;;5.70;99.90;;;;;;5132201;28;20477;-48
2022/04/17 04:01:53;;;;;;;18.50;13.70;;;5.60;99.90;;;;;;5132003;28;20489;-48
2022/04/17 04:04:20;;;;;;;18.83;12.40;;;5.60;99.90;;;;;;5131753;28;20557;-48
2022/04/17 04:06:47;;;;;;;16.30;12.40;;;5.60;99.90;;;;;;5131909;27;20436;-49
2022/04/17 04:09:16;;;;;;;22.57;12.17;;;5.60;99.90;;;;;;5131608;27;20432;-49
2022/04/17 04:11:44;;;;;;;24.10;13.70;;;5.60;99.90;;;;;;5131679;27;20499;-51
2022/04/17 04:14:11;;;;;;;18.80;13.50;;;5.60;99.90;;;;;;5131376;27;20838;-50
2022/04/17 04:16:39;;;;;;;17.20;13.20;;;5.60;99.90;;;;;;5131739;28;20471;-48
2022/04/17 04:19:06;;;;;;;14.60;9.87;;;5.50;99.90;;;;;;5131836;27;20468;-48
2022/04/17 04:21:33;;;;;;;13.90;9.40;;;5.50;99.90;;;;;;5131572;27;20834;-48
2022/04/17 04:24:00;;;;;;;15.63;11.80;;;5.40;99.90;;;;;;5131766;27;20572;-49
2022/04/17 04:26:30;;;;;;;22.10;13.60;;;4.90;99.90;;;;;;5131822;27;20444;-48
2022/04/17 04:28:56;;;;;;;23.57;16.00;;;5.00;99.90;;;;;;5132082;27;20448;-49
2022/04/17 04:31:23;;;;;;;33.93;20.77;;;5.20;99.90;;;;;;5135884;27;20538;-49
2022/04/17 04:33:50;;;;;;;30.27;17.20;;;5.30;99.90;;;;;;5135605;27;20816;-49
2022/04/17 04:36:16;;;;;;;17.57;13.07;;;5.30;99.90;;;;;;5135559;27;20440;-49
2022/04/17 04:38:44;;;;;;;12.13;10.27;;;5.30;99.90;;;;;;5135358;27;20505;-49
2022/04/17 04:41:11;;;;;;;13.03;9.90;;;5.00;99.90;;;;;;5135827;27;20552;-50
2022/04/17 04:43:39;;;;;;;11.90;8.80;;;5.10;99.90;;;;;;5135026;27;21025;-51
2022/04/17 04:46:08;;;;;;;11.30;9.30;;;4.70;99.90;;;;;;5135250;27;20582;-48
2022/04/17 04:51:20;;;;;;;11.97;8.53;;;5.00;99.90;;;;;;5135481;27;20444;-48
2022/04/17 04:53:47;;;;;;;12.10;9.27;;;5.10;99.90;;;;;;5135314;27;20798;-48
2022/04/17 04:56:14;;;;;;;14.73;10.17;;;5.10;99.90;;;;;;5135435;27;20466;-48
2022/04/17 04:58:42;;;;;;;17.10;11.33;;;5.00;99.90;;;;;;5135180;27;20465;-49
2022/04/17 05:01:09;;;;;;;13.20;10.60;;;5.20;99.90;;;;;;5135399;27;20497;-48
2022/04/17 05:03:36;;;;;;;11.47;10.33;;;4.40;99.90;;;;;;5135073;27;20473;-48
2022/04/17 05:06:03;;;;;;;16.07;12.30;;;3.70;99.90;;;;;;5135404;27;20451;-48
2022/04/17 05:08:30;;;;;;;228.07;103.27;;;3.00;99.90;;;;;;5134890;27;20474;-49
2022/04/17 05:10:58;;;;;;;350.50;180.67;;;2.90;99.90;;;;;;5134908;27;20460;-48
2022/04/17 05:13:25;;;;;;;109.47;58.67;;;3.10;99.90;;;;;;5135009;27;20445;-53
2022/04/17 05:15:53;;;;;;;18.60;11.77;;;3.50;99.90;;;;;;5134961;27;20465;-50
2022/04/17 05:18:20;;;;;;;14.30;10.50;;;3.80;99.90;;;;;;5134840;27;20446;-50
2022/04/17 05:20:47;;;;;;;13.57;11.20;;;3.80;99.90;;;;;;5134816;27;20527;-48
2022/04/17 05:23:18;;;;;;;17.70;13.73;;;3.90;99.90;;;;;;5135318;27;20445;-48
2022/04/17 05:25:47;;;;;;;15.67;13.70;;;4.10;99.90;;;;;;5135404;27;20816;-48
2022/04/17 05:28:14;;;;;;;15.67;12.20;;;4.10;99.90;;;;;;5135026;27;20452;-49
2022/04/17 05:30:41;;;;;;;14.67;12.50;;;4.10;99.90;;;;;;5134580;27;20541;-50
2022/04/17 05:33:10;;;;;;;18.87;12.97;;;4.30;99.90;;;;;;5134781;27;20501;-49
2022/04/17 05:35:37;;;;;;;14.03;12.53;;;4.40;99.90;;;;;;5135038;27;20541;-48
2022/04/17 05:38:04;;;;;;;15.30;12.63;;;4.50;99.90;;;;;;5134127;27;20474;-50
2022/04/17 05:40:35;;;;;;;19.27;11.87;;;4.70;99.90;;;;;;5134554;27;20502;-48
2022/04/17 05:43:03;;;;;;;17.03;13.63;;;4.80;99.90;;;;;;5134370;27;20813;-50
2022/04/17 05:45:30;;;;;;;17.27;12.63;;;5.00;99.90;;;;;;5134299;27;20480;-51
2022/04/17 05:47:58;;;;;;;17.00;12.67;;;4.90;99.90;;;;;;5134313;27;20868;-48
2022/04/17 05:50:28;;;;;;;16.17;13.27;;;5.00;99.90;;;;;;5134072;27;20503;-50
2022/04/17 05:52:55;;;;;;;16.47;10.20;;;5.10;99.90;;;;;;5133768;27;20927;-49
2022/04/17 05:55:22;;;;;;;11.43;9.60;;;5.10;99.90;;;;;;5134309;27;20452;-49
2022/04/17 05:57:49;;;;;;;16.90;10.50;;;4.90;99.90;;;;;;5134548;27;20865;-48
2022/04/17 06:00:16;;;;;;;12.07;10.63;;;5.10;99.90;;;;;;5133938;27;20464;-49
2022/04/17 06:02:44;;;;;;;13.90;10.57;;;5.20;99.90;;;;;;5133879;27;20481;-48
2022/04/17 06:05:11;;;;;;;13.83;10.90;;;5.30;99.90;;;;;;5133651;27;20481;-49
2022/04/17 06:07:40;;;;;;;12.00;10.13;;;5.40;99.90;;;;;;5133989;27;20878;-48
2022/04/17 06:10:09;;;;;;;13.10;11.53;;;5.50;99.90;;;;;;5133894;27;20518;-49
2022/04/17 06:12:37;;;;;;;13.90;10.43;;;5.40;99.90;;;;;;5133428;27;20441;-50
2022/04/17 06:15:06;;;;;;;16.03;11.93;;;5.30;99.90;;;;;;5133832;27;20972;-49
2022/04/17 06:17:38;;;;;;;14.03;12.47;;;5.40;99.90;;;;;;5133613;27;20435;-49
2022/04/17 06:20:06;;;;;;;12.70;10.87;;;5.50;99.90;;;;;;5133462;27;20986;-50
2022/04/17 06:22:34;;;;;;;16.47;11.47;;;5.60;99.90;;;;;;5133504;27;20434;-48
2022/04/17 06:25:04;;;;;;;10.80;9.80;;;5.60;99.90;;;;;;5133683;27;20480;-50
2022/04/17 06:27:41;;;;;;;11.70;9.37;;;5.60;99.90;;;;;;5133584;27;20444;-49
2022/04/17 06:30:11;;;;;;;9.50;8.50;;;5.60;99.90;;;;;;5133199;27;20986;-48
2022/04/17 06:32:38;;;;;;;11.73;10.07;;;5.50;99.90;;;;;;5133039;27;20445;-50
2022/04/17 06:35:06;;;;;;;13.23;9.37;;;5.50;99.90;;;;;;5132985;27;20470;-49
2022/04/17 06:37:45;;;;;;;10.20;9.00;;;5.50;99.90;;;;;;5133209;27;20942;-49
2022/04/17 06:40:16;;;;;;;9.83;8.93;;;5.40;99.90;;;;;;5132602;27;20491;-49
2022/04/17 06:42:43;;;;;;;12.50;9.97;;;5.50;99.90;;;;;;5133003;27;20440;-49
2022/04/17 06:45:10;;;;;;;18.17;12.37;;;5.50;99.90;;;;;;5132973;27;21019;-49
2022/04/17 06:47:37;;;;;;;22.53;17.57;;;5.50;99.90;;;;;;5133197;27;20441;-48
2022/04/17 06:50:05;;;;;;;20.13;15.93;;;5.40;99.90;;;;;;5133296;27;20940;-49
2022/04/17 06:52:32;;;;;;;18.60;14.50;;;5.30;99.90;;;;;;5132067;27;20493;-49
2022/04/17 06:55:00;;;;;;;18.70;16.87;;;4.80;99.90;;;;;;5133048;27;20528;-49
2022/04/17 06:57:32;;;;;;;18.27;15.90;;;4.70;99.90;;;;;;5132764;27;20444;-49
2022/04/17 06:59:59;;;;;;;16.67;13.60;;;4.60;99.90;;;;;;5132845;27;20892;-50
2022/04/17 07:02:26;;;;;;;16.07;13.13;;;4.70;99.90;;;;;;5132679;27;20510;-50
2022/04/17 07:04:53;;;;;;;12.23;10.23;;;4.80;99.90;;;;;;5132907;27;20505;-49
2022/04/17 07:07:23;;;;;;;13.23;10.70;;;4.90;99.90;;;;;;5132544;27;20479;-49
2022/04/17 07:09:50;;;;;;;11.03;9.93;;;4.90;99.90;;;;;;5132969;27;20472;-49
2022/04/17 07:12:17;;;;;;;10.90;9.77;;;5.10;99.90;;;;;;5132525;27;20456;-49
2022/04/17 07:14:47;;;;;;;14.03;10.43;;;5.30;99.90;;;;;;5133114;27;20440;-49
2022/04/17 07:17:14;;;;;;;10.97;9.43;;;5.30;99.90;;;;;;5132720;27;20451;-49
2022/04/17 07:19:41;;;;;;;11.17;10.07;;;5.30;99.90;;;;;;5132452;27;20480;-49
2022/04/17 07:22:10;;;;;;;13.13;9.97;;;5.60;99.90;;;;;;5132354;27;20972;-49
2022/04/17 07:24:39;;;;;;;10.97;9.73;;;5.50;99.90;;;;;;5132053;27;20941;-49
2022/04/17 07:27:06;;;;;;;11.43;9.67;;;5.50;99.90;;;;;;5132450;27;20462;-49
2022/04/17 07:29:33;;;;;;;10.00;9.00;;;5.60;99.90;;;;;;5132566;27;20484;-50
2022/04/17 07:32:02;;;;;;;10.10;8.20;;;5.60;99.90;;;;;;5132217;27;20504;-50
2022/04/17 07:34:28;;;;;;;10.20;8.87;;;5.70;99.90;;;;;;5132322;27;20485;-50
2022/04/17 07:36:55;;;;;;;9.33;8.43;;;5.90;99.90;;;;;;5132173;27;20441;-49
2022/04/17 07:39:22;;;;;;;9.87;8.40;;;6.10;99.90;;;;;;5132323;27;20469;-49
2022/04/17 07:41:50;;;;;;;10.70;8.30;;;6.30;99.90;;;;;;5132036;27;20457;-49
2022/04/17 07:44:17;;;;;;;9.20;7.77;;;5.90;99.90;;;;;;5131858;27;20561;-50
2022/04/17 07:46:44;;;;;;;12.13;8.67;;;5.90;99.90;;;;;;5132321;27;20494;-49
2022/04/17 07:49:12;;;;;;;10.77;8.90;;;6.00;99.90;;;;;;5132105;27;20476;-49
2022/04/17 07:51:39;;;;;;;9.50;7.70;;;6.20;99.90;;;;;;5132291;28;20457;-49
2022/04/17 07:54:06;;;;;;;7.40;6.30;;;6.20;99.90;;;;;;5131927;27;20441;-49
2022/04/17 07:56:33;;;;;;;8.97;6.80;;;6.20;99.90;;;;;;5131936;27;20441;-50
2022/04/17 07:59:00;;;;;;;7.03;6.13;;;6.40;99.90;;;;;;5132442;28;20445;-50
2022/04/17 08:01:30;;;;;;;7.90;6.47;;;6.50;99.90;;;;;;5132339;28;20895;-47
2022/04/17 08:03:57;;;;;;;7.53;6.83;;;6.70;99.90;;;;;;5132500;27;20445;-47
2022/04/17 08:06:26;;;;;;;9.90;6.80;;;7.30;99.90;;;;;;5136320;27;20504;-47
2022/04/17 08:08:53;;;;;;;6.93;6.23;;;7.50;99.90;;;;;;5136502;27;20437;-47
2022/04/17 08:11:20;;;;;;;7.73;6.93;;;7.70;99.90;;;;;;5136396;27;20454;-50
2022/04/17 08:13:47;;;;;;;13.73;11.00;;;8.00;99.90;;;;;;5135737;27;20434;-50
2022/04/17 08:16:15;;;;;;;6.53;5.93;;;8.30;99.90;;;;;;5136127;27;20449;-49
2022/04/17 08:18:42;;;;;;;7.30;6.60;;;8.30;99.90;;;;;;5136181;27;20923;-47
2022/04/17 08:21:09;;;;;;;6.97;5.57;;;9.10;99.90;;;;;;5135922;27;20469;-48
2022/04/17 08:23:38;;;;;;;6.93;6.10;;;9.90;99.90;;;;;;5135802;27;20996;-50
2022/04/17 08:26:06;;;;;;;9.20;6.70;;;9.20;99.90;;;;;;5135809;27;20509;-47
2022/04/17 08:28:33;;;;;;;9.70;6.17;;;8.60;99.90;;;;;;5136005;27;20444;-48
2022/04/17 08:31:00;;;;;;;7.10;5.73;;;8.30;99.90;;;;;;5135526;27;20500;-51
2022/04/17 08:33:27;;;;;;;7.40;6.00;;;8.10;99.90;;;;;;5135781;27;20440;-47
2022/04/17 08:35:57;;;;;;;7.10;6.30;;;8.50;99.90;;;;;;5135644;27;20987;-49
2022/04/17 08:38:24;;;;;;;7.93;6.53;;;8.50;99.90;;;;;;5135341;27;20438;-47
2022/04/17 08:40:54;;;;;;;9.60;6.40;;;8.30;99.90;;;;;;5135699;27;20521;-46
2022/04/17 08:43:22;;;;;;;7.13;6.00;;;8.70;99.90;;;;;;5135732;27;20437;-49
2022/04/17 08:45:50;;;;;;;6.77;6.07;;;8.80;99.90;;;;;;5135918;27;20476;-49
2022/04/17 08:48:18;;;;;;;7.97;6.07;;;9.10;99.90;;;;;;5135381;27;20541;-46
2022/04/17 08:50:48;;;;;;;6.97;5.90;;;9.50;99.90;;;;;;5135650;27;20497;-49
2022/04/17 08:53:17;;;;;;;6.57;5.50;;;9.50;99.90;;;;;;5135142;27;20525;-50
2022/04/17 08:55:44;;;;;;;6.60;5.50;;;9.60;99.90;;;;;;5135193;27;20437;-50
2022/04/17 08:58:13;;;;;;;6.50;5.47;;;10.10;99.90;;;;;;5135472;27;20472;-49
2022/04/17 09:00:40;;;;;;;8.90;6.20;;;10.60;99.90;;;;;;5135200;27;20462;-49
2022/04/17 09:03:09;;;;;;;6.60;6.00;;;11.00;99.30;;;;;;5134776;27;20437;-48
2022/04/17 09:05:37;;;;;;;4.90;4.40;;;10.60;99.20;;;;;;5134870;27;20469;-48
2022/04/17 09:08:14;;;;;;;5.40;4.90;;;10.90;97.10;;;;;;5134962;27;20442;-49
2022/04/17 09:10:41;;;;;;;5.60;5.10;;;11.40;96.60;;;;;;5134880;27;20461;-49
2022/04/17 09:13:08;;;;;;;6.13;4.57;;;11.30;97.70;;;;;;5134785;27;20531;-49
2022/04/17 09:15:37;;;;;;;5.33;4.57;;;11.50;96.90;;;;;;5134325;27;20969;-49
2022/04/17 09:18:08;;;;;;;5.77;5.27;;;11.00;95.40;;;;;;5134925;27;20442;-49
2022/04/17 09:20:35;;;;;;;6.23;5.57;;;11.10;96.40;;;;;;5135618;27;20478;-49
2022/04/17 09:23:02;;;;;;;6.70;6.03;;;11.30;96.30;;;;;;5134612;27;20631;-48
2022/04/17 09:25:30;;;;;;;7.27;5.77;;;11.20;96.90;;;;;;5134634;27;20844;-49
2022/04/17 09:27:58;;;;;;;6.27;5.63;;;10.60;97.40;;;;;;5134771;27;20546;-50
2022/04/17 09:30:28;;;;;;;7.17;6.03;;;10.90;97.70;;;;;;5134668;27;20465;-49
2022/04/17 09:32:57;;;;;;;5.77;5.20;;;11.20;96.50;;;;;;5134292;27;20500;-51
2022/04/17 09:35:24;;;;;;;8.77;5.33;;;10.90;95.90;;;;;;5134882;27;20526;-48
2022/04/17 09:37:57;;;;;;;5.93;5.17;;;10.80;96.50;;;;;;5134620;27;20513;-49
2022/04/17 09:40:24;;;;;;;5.97;5.37;;;11.00;95.70;;;;;;5134418;27;20544;-49
2022/04/17 09:43:07;;;;;;;7.07;6.10;;;10.80;95.60;;;;;;5134158;27;20863;-49
2022/04/17 09:45:34;;;;;;;6.37;5.77;;;10.80;96.10;;;;;;5134372;27;20561;-51
2022/04/17 09:48:03;;;;;;;6.50;5.90;;;10.60;96.70;;;;;;5134415;27;20497;-52
2022/04/17 09:50:33;;;;;;;5.63;5.03;;;10.60;97.20;;;;;;5134504;27;20546;-49
2022/04/17 09:53:05;;;;;;;6.33;5.73;;;10.80;96.30;;;;;;5134072;27;20448;-50
2022/04/17 09:55:38;;;;;;;5.53;5.03;;;11.10;95.90;;;;;;5134315;27;20484;-49
2022/04/17 09:58:05;;;;;;;5.60;5.10;;;11.30;93.70;;;;;;5134147;27;20453;-50
2022/04/17 10:00:42;;;;;;;5.70;5.20;;;11.00;95.00;;;;;;5133941;27;20468;-49
2022/04/17 10:03:11;;;;;;;6.63;5.90;;;11.10;95.90;;;;;;5133786;27;20449;-48
2022/04/17 10:05:39;;;;;;;6.47;5.87;;;11.20;95.40;;;;;;5134041;27;20513;-48
2022/04/17 10:08:11;;;;;;;5.97;4.40;;;10.90;96.70;;;;;;5133687;27;20458;-49
2022/04/17 10:10:38;;;;;;;6.50;5.77;;;11.10;93.50;;;;;;5134203;27;20461;-48
2022/04/17 10:13:07;;;;;;;9.93;5.70;;;11.10;96.40;;;;;;5133645;27;20902;-48
2022/04/17 10:15:35;;;;;;;5.70;5.13;;;11.30;94.30;;;;;;5133861;27;20517;-50
2022/04/17 10:18:03;;;;;;;6.90;4.70;;;11.30;96.10;;;;;;5133583;27;20924;-50
2022/04/17 10:20:32;;;;;;;5.70;5.20;;;11.20;95.50;;;;;;5133358;27;20470;-48
2022/04/17 10:23:05;;;;;;;6.27;5.77;;;11.50;95.80;;;;;;5133564;27;20437;-48
2022/04/17 10:25:34;;;;;;;6.77;6.07;;;11.50;96.70;;;;;;5133436;27;20476;-48
2022/04/17 10:28:05;;;;;;;7.70;6.47;;;11.30;97.40;;;;;;5132729;27;20490;-48
2022/04/17 10:30:46;;;;;;;6.43;5.30;;;11.20;97.30;;;;;;5133637;27;20878;-48
2022/04/17 10:33:32;;;;;;;7.43;6.73;;;11.50;95.90;;;;;;5133392;27;20858;-48
2022/04/17 10:36:27;;;;;;;7.10;6.40;;;12.00;96.60;;;;;;5133706;27;20487;-48
2022/04/17 10:39:09;;;;;;;6.80;5.17;;;11.70;97.30;;;;;;5133125;27;20943;-47
2022/04/17 10:41:37;;;;;;;5.97;5.47;;;11.50;96.60;;;;;;5133335;27;20464;-48
2022/04/17 10:44:05;;;;;;;7.83;5.60;;;11.60;95.70;;;;;;5133109;27;20437;-48
2022/04/17 10:46:46;;;;;;;5.90;5.30;;;11.60;96.10;;;;;;5133343;27;20473;-48
2022/04/17 10:49:13;;;;;;;5.47;4.93;;;11.50;96.30;;;;;;5133349;27;20520;-48
2022/04/17 10:51:50;;;;;;;6.30;5.67;;;11.40;96.60;;;;;;5133148;27;20492;-48
2022/04/17 10:54:17;;;;;;;6.40;5.80;;;11.60;94.20;;;;;;5132719;27;20469;-48
2022/04/17 10:57:02;;;;;;;5.23;4.73;;;11.70;94.60;;;;;;5132865;27;20465;-49
2022/04/17 10:59:30;;;;;;;5.60;3.97;;;11.80;94.40;;;;;;5133113;27;20452;-48
2022/04/17 11:02:02;;;;;;;6.20;5.37;;;12.20;92.30;;;;;;5133052;27;20504;-48
2022/04/17 11:04:31;;;;;;;6.03;5.53;;;12.20;93.10;;;;;;5132709;27;20480;-49
2022/04/17 11:07:22;;;;;;;4.60;3.90;;;12.10;94.30;;;;;;5132389;27;21056;-48
2022/04/17 11:10:04;;;;;;;4.37;3.97;;;12.30;94.30;;;;;;5132928;27;20465;-48
2022/04/17 11:12:31;;;;;;;5.07;4.57;;;12.30;91.50;;;;;;5132595;27;20503;-48
2022/04/17 11:15:22;;;;;;;4.17;3.60;;;12.40;92.80;;;;;;5132602;27;20481;-48
2022/04/17 11:17:51;;;;;;;4.27;3.67;;;12.40;93.10;;;;;;5132239;27;20891;-48
2022/04/17 11:20:19;;;;;;;4.03;3.63;;;12.40;91.40;;;;;;5131984;27;20497;-49
2022/04/17 11:22:47;;;;;;;5.07;4.17;;;12.40;90.70;;;;;;5132238;27;20441;-49
2022/04/17 11:25:14;;;;;;;4.33;3.93;;;12.60;92.20;;;;;;5132338;27;20437;-48
2022/04/17 11:27:45;;;;;;;4.47;4.03;;;12.40;90.10;;;;;;5132119;27;20442;-48
2022/04/17 11:30:35;;;;;;;4.17;3.77;;;12.60;94.00;;;;;;5132647;27;20457;-48
2022/04/17 11:33:08;;;;;;;5.53;3.83;;;12.60;91.20;;;;;;5132045;27;20442;-48
2022/04/17 11:35:35;;;;;;;4.40;4.00;;;12.70;91.00;;;;;;5132492;27;20441;-49
2022/04/17 11:38:06;;;;;;;3.63;3.20;;;12.80;87.80;;;;;;5131807;27;20442;-48
2022/04/17 11:40:35;;;;;;;4.47;3.57;;;12.80;91.40;;;;;;5132279;27;20465;-48
2022/04/17 11:43:08;;;;;;;3.17;2.77;;;13.00;90.20;;;;;;5132067;27;20473;-48
2022/04/17 11:45:35;;;;;;;3.70;3.37;;;13.00;88.30;;;;;;5131923;27;20473;-48
2022/04/17 11:48:08;;;;;;;4.27;3.77;;;13.20;93.60;;;;;;5132286;27;20480;-48
2022/04/17 11:50:35;;;;;;;4.33;3.93;;;13.20;91.00;;;;;;5131973;27;20462;-49
2022/04/17 11:53:05;;;;;;;3.17;2.77;;;13.30;91.50;;;;;;5132136;27;20465;-49
2022/04/17 11:55:34;;;;;;;3.30;3.00;;;13.20;86.70;;;;;;5132377;28;20932;-48
2022/04/17 11:58:02;;;;;;;3.87;3.40;;;13.10;91.00;;;;;;5132062;27;20481;-48
2022/04/17 12:00:30;;;;;;;3.70;3.23;;;13.30;92.00;;;;;;5132262;28;20858;-48
2022/04/17 12:02:58;;;;;;;4.50;3.20;;;13.30;91.20;;;;;;5131902;28;20947;-48
2022/04/17 12:05:26;;;;;;;3.87;3.47;;;13.30;90.10;;;;;;5132323;28;20484;-48
2022/04/17 12:07:58;;;;;;;3.10;2.80;;;13.10;88.60;;;;;;5131885;28;20442;-49
2022/04/17 12:10:27;;;;;;;3.10;2.77;;;13.00;84.10;;;;;;5132179;27;20497;-48
2022/04/17 12:12:54;;;;;;;3.10;2.80;;;13.10;87.10;;;;;;5131533;27;20489;-48
2022/04/17 12:15:22;;;;;;;3.50;3.20;;;13.00;90.50;;;;;;5131457;28;21000;-48
2022/04/17 12:17:59;;;;;;;4.10;3.20;;;13.10;88.50;;;;;;5132057;27;20442;-48
2022/04/17 12:20:27;;;;;;;3.80;3.47;;;13.30;82.20;;;;;;5131688;28;20480;-49
2022/04/17 12:22:54;;;;;;;2.90;2.60;;;13.00;89.70;;;;;;5131721;27;20441;-49
2022/04/17 12:25:23;;;;;;;2.60;2.40;;;12.70;79.70;;;;;;5132019;27;20520;-48
2022/04/17 12:27:53;;;;;;;2.67;2.47;;;12.80;85.30;;;;;;5131988;28;20438;-48
2022/04/17 12:30:21;;;;;;;3.03;2.73;;;12.50;80.30;;;;;;5131883;28;20887;-48
2022/04/17 12:32:49;;;;;;;3.37;2.80;;;12.60;87.40;;;;;;5131456;27;20741;-48
2022/04/17 12:35:25;;;;;;;31.57;7.60;;;12.70;87.00;;;;;;5131556;27;20495;-47
2022/04/17 12:38:05;;;;;;;3.77;2.60;;;12.60;80.70;;;;;;5132038;27;20430;-48
2022/04/17 12:40:39;;;;;;;2.30;2.10;;;12.40;84.40;;;;;;5131725;28;20490;-48
2022/04/17 12:43:17;;;;;;;3.33;3.03;;;12.60;84.90;;;;;;5131924;28;20448;-48
2022/04/17 12:45:56;;;;;;;3.20;2.90;;;12.70;86.90;;;;;;5131583;28;20969;-47
2022/04/17 12:48:28;;;;;;;3.83;2.40;;;12.80;83.80;;;;;;5131372;27;20495;-48
2022/04/17 12:50:59;;;;;;;1.80;1.70;;;13.00;85.80;;;;;;5133548;27;20549;-48
2022/04/17 12:53:31;;;;;;;2.57;2.23;;;12.80;83.90;;;;;;5135147;27;20520;-48
2022/04/17 12:55:58;;;;;;;2.90;2.47;;;12.60;78.50;;;;;;5135519;27;20992;-48
2022/04/17 12:58:27;;;;;;;2.67;2.47;;;12.60;80.10;;;;;;5135280;27;20437;-48
2022/04/17 13:00:58;;;;;;;3.30;3.00;;;12.40;76.40;;;;;;5135056;27;20493;-47
2022/04/17 13:03:34;;;;;;;3.40;3.10;;;12.60;79.70;;;;;;5135153;27;20484;-48
2022/04/17 13:06:02;;;;;;;2.93;2.50;;;12.50;78.80;;;;;;5135073;27;20469;-48
2022/04/17 13:08:29;;;;;;;2.50;2.30;;;12.50;79.50;;;;;;5135099;27;20810;-48
2022/04/17 13:10:56;;;;;;;1.87;1.67;;;12.60;77.20;;;;;;5135068;27;20465;-48